Time;durP1;ratioP1;P1;durP2;ratioP2;P2;SDS_P1;SDS_P2;PMS_P1;PMS_P2;Temp;Humidity;BMP_temperature;BMP_pressure;BME280_temperature;BME280_humidity;BME280_pressure;Samples;Min_cycle;Max_cycle;Signal;HPM_P1;HPM_P2
2021/05/16 00:02:04;;;;;;;79.87;28.73;;;;;;;7.82;94.56;99850.00;5073691;28;20119;-64
2021/05/16 00:04:29;;;;;;;72.03;28.10;;;;;;;7.86;94.46;99852.31;5056647;28;20024;-64
2021/05/16 00:06:55;;;;;;;67.93;27.93;;;;;;;7.86;94.30;99847.81;5091139;28;20032;-64
2021/05/16 00:09:20;;;;;;;74.67;27.97;;;;;;;7.88;94.43;99840.50;5076834;28;20050;-64
2021/05/16 00:11:45;;;;;;;73.87;28.20;;;;;;;7.91;94.49;99845.50;5077404;28;20123;-64
2021/05/16 00:14:11;;;;;;;81.63;29.50;;;;;;;7.88;94.34;99843.19;5095197;28;20454;-64
2021/05/16 00:16:37;;;;;;;78.40;32.10;;;;;;;7.80;94.07;99846.69;5060731;28;20047;-64
2021/05/16 00:19:03;;;;;;;76.40;29.92;;;;;;;7.84;94.40;99841.84;5077029;28;20028;-64
2021/05/16 00:21:29;;;;;;;72.68;27.90;;;;;;;7.85;94.45;99832.88;5095135;28;20361;-64
2021/05/16 00:23:54;;;;;;;79.37;28.20;;;;;;;7.88;94.45;99842.34;5094983;28;20024;-64
2021/05/16 00:26:19;;;;;;;82.43;30.13;;;;;;;7.83;94.63;99834.88;5077334;28;20964;-64
2021/05/16 00:28:45;;;;;;;86.07;31.50;;;;;;;7.85;94.64;99835.53;5094403;28;20044;-64
2021/05/16 00:31:10;;;;;;;95.00;32.43;;;;;;;7.79;94.80;99830.88;5077100;28;20043;-64
2021/05/16 00:33:35;;;;;;;82.33;31.33;;;;;;;7.85;94.99;99826.75;5094878;28;20043;-64
2021/05/16 00:36:01;;;;;;;94.30;31.80;;;;;;;7.86;94.78;99831.06;5094915;28;20039;-64
2021/05/16 00:38:26;;;;;;;88.00;32.23;;;;;;;7.93;94.95;99829.38;5094538;28;20032;-64
2021/05/16 00:40:52;;;;;;;73.73;31.30;;;;;;;7.95;95.01;99824.72;5077025;28;20278;-64
2021/05/16 00:43:17;;;;;;;76.97;31.90;;;;;;;7.95;94.73;99822.91;5076850;28;20050;-64
2021/05/16 00:45:47;;;;;;;83.33;31.60;;;;;;;7.97;94.84;99822.75;5094557;28;20127;-64
2021/05/16 00:48:12;;;;;;;94.53;34.35;;;;;;;7.95;95.05;99824.72;5076387;28;20032;-64
2021/05/16 00:50:44;;;;;;;87.72;32.38;;;;;;;7.97;94.92;99822.75;5060110;28;20465;-64
2021/05/16 00:53:10;;;;;;;87.30;32.70;;;;;;;7.99;95.01;99820.75;5094468;28;20516;-64
2021/05/16 00:55:36;;;;;;;85.40;32.95;;;;;;;8.00;95.09;99814.41;5059878;28;20028;-64
2021/05/16 00:58:04;;;;;;;74.22;27.15;;;;;;;7.98;95.00;99814.63;5093901;28;20445;-64
2021/05/16 01:00:39;;;;;;;87.78;31.98;;;;;;;7.99;94.99;99808.28;5059950;28;20384;-65
2021/05/16 01:03:11;;;;;;;74.15;26.95;;;;;;;8.02;94.99;99815.91;5094453;28;20035;-65
2021/05/16 01:05:38;;;;;;;74.60;29.58;;;;;;;8.02;94.83;99818.56;5076372;28;20043;-64
2021/05/16 01:08:05;;;;;;;89.50;30.38;;;;;;;7.98;94.58;99824.38;5076020;28;20477;-64
2021/05/16 01:10:31;;;;;;;83.25;31.70;;;;;;;7.98;94.47;99814.63;5059687;28;20036;-64
2021/05/16 01:12:57;;;;;;;78.93;28.17;;;;;;;7.92;94.61;99817.94;5094200;28;20093;-64
2021/05/16 01:15:27;;;;;;;84.70;29.60;;;;;;;7.86;94.86;99813.28;5076131;28;20105;-64
2021/05/16 01:17:54;;;;;;;81.75;30.88;;;;;;;7.88;95.48;99811.28;5093947;28;20457;-64
2021/05/16 01:20:29;;;;;;;94.57;29.90;;;;;;;7.86;94.97;99813.28;5076056;28;20044;-64
2021/05/16 01:22:59;;;;;;;81.00;30.17;;;;;;;7.83;95.04;99811.78;5076086;28;20028;-64
2021/05/16 01:25:26;;;;;;;85.55;31.70;;;;;;;7.75;94.90;99801.19;5075962;28;20119;-64
2021/05/16 01:27:52;;;;;;;88.35;32.83;;;;;;;7.70;95.12;99807.97;5075848;28;20036;-64
2021/05/16 01:30:19;;;;;;;74.80;29.95;;;;;;;7.65;95.06;99800.50;5076030;28;20511;-64
2021/05/16 01:32:45;;;;;;;74.85;28.23;;;;;;;7.58;94.89;99804.81;5093802;28;20448;-64
2021/05/16 01:35:11;;;;;;;82.18;29.58;;;;;;;7.53;94.77;99802.66;5075860;28;20032;-64
2021/05/16 01:37:37;;;;;;;87.72;32.97;;;;;;;7.48;95.09;99799.69;5075554;28;20047;-64
2021/05/16 01:40:04;;;;;;;62.47;23.42;;;;;;;7.36;94.83;99801.00;5093629;28;20039;-64
2021/05/16 01:42:31;;;;;;;87.57;30.02;;;;;;;7.28;94.51;99801.84;5075858;28;20110;-64
2021/05/16 01:45:02;;;;;;;68.30;27.60;;;;;;;7.21;94.49;99807.94;5075541;28;20039;-64
2021/05/16 01:47:28;;;;;;;71.43;26.85;;;;;;;7.10;94.65;99804.63;5075585;28;20039;-64
2021/05/16 01:50:02;;;;;;;;;;;;;;;7.12;94.61;99807.94;5059289;28;20028;-64
2021/05/16 01:52:30;;;;;;;59.85;24.23;;;;;;;7.01;94.36;99800.28;5075708;28;20053;-63
2021/05/16 01:54:55;;;;;;;78.60;29.05;;;;;;;6.91;94.23;99810.22;5075710;28;20035;-64
2021/05/16 01:57:21;;;;;;;77.77;28.53;;;;;;;6.88;94.34;99802.56;5093310;28;20036;-64
2021/05/16 01:59:48;;;;;;;69.57;25.70;;;;;;;6.81;94.31;99804.19;5075165;28;20124;-64
2021/05/16 02:02:14;;;;;;;81.97;30.60;;;;;;;6.75;94.43;99798.56;5075323;28;20149;-64
2021/05/16 02:04:40;;;;;;;62.30;22.75;;;;;;;6.71;94.19;99807.00;5075093;28;20516;-64
2021/05/16 02:07:06;;;;;;;71.93;26.73;;;;;;;6.57;94.01;99802.28;5093103;28;20047;-64
2021/05/16 02:09:37;;;;;;;57.03;23.33;;;;;;;6.51;94.04;99804.59;5074998;28;20047;-64
2021/05/16 02:12:04;;;;;;;59.17;23.00;;;;;;;6.48;94.14;99796.94;5075121;28;20457;-64
2021/05/16 02:14:31;;;;;;;100.82;31.13;;;;;;;6.49;94.31;99793.31;5075140;28;20036;-64
2021/05/16 02:16:58;;;;;;;91.75;30.27;;;;;;;6.53;94.39;99799.13;5092649;28;20107;-64
2021/05/16 02:19:24;;;;;;;62.13;22.23;;;;;;;6.50;94.23;99794.16;5074903;28;20479;-64
2021/05/16 02:21:50;;;;;;;63.75;21.85;;;;;;;6.45;94.60;99791.97;5074969;28;20032;-64
2021/05/16 02:24:17;;;;;;;;;;;;;;;6.50;94.43;99788.84;5075405;28;20523;-64
2021/05/16 02:27:05;;;;;;;70.35;25.45;;;;;;;6.52;94.50;99790.34;5074979;28;19961;-64
2021/05/16 02:29:41;;;;;;;55.50;21.73;;;;;;;6.47;94.51;99789.16;5074511;28;20047;-64
2021/05/16 02:32:08;;;;;;;57.47;22.65;;;;;;;6.45;94.19;99789.31;5074248;28;20357;-64
2021/05/16 02:34:34;;;;;;;53.90;21.55;;;;;;;6.49;94.38;99789.84;5074933;28;20032;-64
2021/05/16 02:37:00;;;;;;;52.38;25.23;;;;;;;6.50;94.22;99794.16;5092503;28;20038;-64
2021/05/16 02:39:26;;;;;;;53.15;24.80;;;;;;;6.50;94.28;99794.97;5074465;28;20481;-64
2021/05/16 02:41:51;;;;;;;51.63;22.73;;;;;;;6.50;94.26;99788.84;5074470;28;20043;-64
2021/05/16 02:44:18;;;;;;;50.15;21.33;;;;;;;6.53;94.45;99796.47;5092234;28;20496;-64
2021/05/16 02:46:46;;;;;;;58.00;24.88;;;;;;;6.53;94.34;99793.81;5057930;28;20038;-64
2021/05/16 02:49:11;;;;;;;64.32;26.58;;;;;;;6.57;94.93;99799.66;5057565;28;20077;-64
2021/05/16 02:51:37;;;;;;;60.87;24.87;;;;;;;6.63;94.79;99797.19;5092364;28;20395;-64
2021/05/16 02:54:04;;;;;;;72.57;31.42;;;;;;;6.82;95.86;99793.44;5092222;28;20062;-64
2021/05/16 02:56:29;;;;;;;;;;;;;;;6.89;96.07;99793.63;5092586;28;20705;-64
2021/05/16 02:58:56;;;;;;;76.93;29.10;;;;;;;6.91;96.01;99791.66;5091793;28;20333;-64
2021/05/16 03:01:22;;;;;;;66.68;25.70;;;;;;;6.93;95.96;99795.78;5074346;28;20039;-64
2021/05/16 03:03:50;;;;;;;61.20;27.67;;;;;;;6.93;96.00;99801.09;5057826;28;20727;-64
2021/05/16 03:06:16;;;;;;;59.97;26.40;;;;;;;6.97;95.82;99798.94;5074337;28;20038;-64
2021/05/16 03:08:41;;;;;;;68.40;28.25;;;;;;;6.89;95.70;99778.53;5073784;28;20122;-64
2021/05/16 03:11:07;;;;;;;52.78;24.23;;;;;;;7.03;95.77;99797.47;5074003;28;20042;-64
2021/05/16 03:13:33;;;;;;;50.65;24.85;;;;;;;6.93;95.68;99794.94;5073876;28;20492;-64
2021/05/16 03:16:06;;;;;;;52.65;24.75;;;;;;;6.95;95.75;99791.16;5074108;28;20036;-64
2021/05/16 03:18:32;;;;;;;51.33;23.43;;;;;;;7.02;95.58;99788.66;5091514;28;20036;-64
2021/05/16 03:20:57;;;;;;;49.93;22.27;;;;;;;6.99;95.55;99799.59;5091790;28;20115;-64
2021/05/16 03:23:23;;;;;;;42.35;20.65;;;;;;;6.98;95.41;99793.47;5091680;28;20078;-64
2021/05/16 03:25:48;;;;;;;48.33;23.00;;;;;;;6.97;95.39;99796.28;5073584;28;20378;-64
2021/05/16 03:28:14;;;;;;;52.90;23.73;;;;;;;6.90;95.02;99792.63;5091282;28;20064;-64
2021/05/16 03:30:39;;;;;;;44.70;21.30;;;;;;;6.88;95.28;99787.50;5091561;28;20036;-64
2021/05/16 03:33:04;;;;;;;43.60;21.00;;;;;;;6.94;95.66;99786.00;5091624;28;20059;-64
2021/05/16 03:35:30;;;;;;;56.17;23.77;;;;;;;6.92;95.14;99786.16;5091546;28;20338;-64
2021/05/16 03:37:56;;;;;;;39.57;18.60;;;;;;;6.92;95.25;99785.34;5073487;28;20036;-64
2021/05/16 03:40:21;;;;;;;41.67;20.13;;;;;;;6.89;95.05;99789.13;5091344;28;20400;-64
2021/05/16 03:42:47;;;;;;;47.43;19.43;;;;;;;6.85;95.04;99789.63;5090508;28;20036;-64
2021/05/16 03:45:13;;;;;;;41.13;20.27;;;;;;;6.84;95.22;99796.75;5073425;28;20036;-64
2021/05/16 03:47:39;;;;;;;;;;;;;;;6.84;94.98;99795.94;5091543;28;20036;-64
2021/05/16 03:50:07;;;;;;;40.65;19.98;;;;;;;6.80;94.87;99795.41;5091302;28;19923;-64
2021/05/16 03:52:32;;;;;;;42.03;20.80;;;;;;;6.84;94.87;99795.94;5091323;28;20031;-64
2021/05/16 03:54:58;;;;;;;39.23;17.57;;;;;;;6.86;95.03;99796.56;5073315;28;20036;-64
2021/05/16 03:57:23;;;;;;;48.60;22.67;;;;;;;6.85;94.69;99797.59;5091253;28;20043;-64
2021/05/16 03:59:49;;;;;;;42.50;20.47;;;;;;;6.84;95.03;99795.94;5090929;28;20032;-64
2021/05/16 04:02:15;;;;;;;46.67;22.75;;;;;;;6.89;95.37;99801.59;5091291;28;20111;-64
2021/05/16 04:04:40;;;;;;;45.93;23.40;;;;;;;6.99;95.38;99799.59;5073312;28;20414;-64
2021/05/16 04:07:06;;;;;;;39.00;21.50;;;;;;;7.07;95.46;99794.34;5091105;28;20281;-64
2021/05/16 04:09:31;;;;;;;34.80;19.23;;;;;;;7.09;95.06;99794.97;5090785;28;20032;-64
2021/05/16 04:11:56;;;;;;;36.43;18.63;;;;;;;7.15;94.98;99799.66;5056563;28;20032;-64
2021/05/16 04:14:23;;;;;;;32.07;17.13;;;;;;;7.26;95.05;99801.16;5091103;28;20081;-64
2021/05/16 04:16:49;;;;;;;30.40;16.73;;;;;;;7.35;95.06;99794.88;5073246;28;20032;-64
2021/05/16 04:19:16;;;;;;;29.25;16.77;;;;;;;7.27;94.55;99802.81;5090735;28;20480;-64
2021/05/16 04:21:41;;;;;;;27.38;16.40;;;;;;;7.29;94.54;99800.81;5091070;28;20028;-64
2021/05/16 04:24:07;;;;;;;25.83;16.40;;;;;;;7.34;94.53;99798.50;5090885;28;20515;-64
2021/05/16 04:26:33;;;;;;;22.55;15.57;;;;;;;7.47;94.63;99797.19;5073269;28;20032;-64
2021/05/16 04:28:58;;;;;;;21.15;14.30;;;;;;;7.44;94.29;99789.53;5072942;28;20063;-64
2021/05/16 04:31:23;;;;;;;21.43;14.53;;;;;;;7.44;94.05;99797.50;5073143;28;20483;-64
2021/05/16 04:33:50;;;;;;;24.00;14.27;;;;;;;7.57;94.27;99795.19;5073274;28;20078;-64
2021/05/16 04:36:15;;;;;;;;;;;;;;;7.65;94.24;99802.34;5073586;28;20294;-64
2021/05/16 04:38:41;;;;;;;;;;;;;;;7.50;93.48;99797.69;5073117;28;19919;-64
2021/05/16 04:41:06;;;;;;;23.93;13.93;;;;;;;7.43;93.71;99799.34;5090807;28;20489;-64
2021/05/16 04:43:31;;;;;;;22.40;13.40;;;;;;;7.46;94.01;99796.34;5090801;28;20042;-64
2021/05/16 04:45:57;;;;;;;21.27;14.23;;;;;;;7.42;93.92;99795.00;5072839;28;20024;-64
2021/05/16 04:48:22;;;;;;;20.63;13.07;;;;;;;7.62;94.41;99806.16;5090534;28;20358;-63
2021/05/16 04:50:47;;;;;;;21.03;13.23;;;;;;;7.49;93.82;99804.00;5056248;28;20042;-64
2021/05/16 04:53:13;;;;;;;21.77;12.50;;;;;;;7.59;93.60;99801.19;5072729;28;20059;-64
2021/05/16 04:55:38;;;;;;;23.30;12.40;;;;;;;7.54;93.84;99801.69;5076798;28;20036;-64
2021/05/16 04:58:03;;;;;;;19.33;12.50;;;;;;;7.54;93.82;99800.84;5076280;28;20040;-64
2021/05/16 05:00:29;;;;;;;19.53;12.47;;;;;;;7.67;93.78;99798.50;5094519;28;20032;-64
2021/05/16 05:02:54;;;;;;;20.27;11.60;;;;;;;7.76;93.65;99800.16;5094377;28;20032;-64
2021/05/16 05:05:20;;;;;;;19.73;11.33;;;;;;;7.69;93.38;99801.84;5094305;28;20032;-64
2021/05/16 05:07:45;;;;;;;19.07;11.90;;;;;;;7.75;93.28;99801.19;5076047;28;20131;-64
2021/05/16 05:10:11;;;;;;;16.83;11.93;;;;;;;7.75;93.05;99800.31;5076489;28;20040;-64
2021/05/16 05:12:37;;;;;;;17.63;11.93;;;;;;;7.76;93.30;99802.81;5076250;28;20067;-64
2021/05/16 05:15:03;;;;;;;17.80;11.95;;;;;;;7.93;93.56;99803.63;5094128;28;20123;-64
2021/05/16 05:17:29;;;;;;;19.05;11.52;;;;;;;7.88;92.62;99808.63;5093736;28;20097;-64
2021/05/16 05:19:54;;;;;;;17.33;11.63;;;;;;;8.09;92.80;99804.63;5076206;28;20542;-64
2021/05/16 05:22:19;;;;;;;16.43;10.93;;;;;;;8.15;92.62;99802.13;5093961;28;20043;-64
2021/05/16 05:24:45;;;;;;;14.37;10.90;;;;;;;8.43;91.50;99801.75;5093863;28;20031;-64
2021/05/16 05:27:10;;;;;;;16.23;9.87;;;;;;;8.41;90.33;99801.91;5076046;28;20472;-64
2021/05/16 05:29:35;;;;;;;13.20;9.23;;;;;;;8.34;90.18;99800.06;5093645;28;20044;-64
2021/05/16 05:32:01;;;;;;;14.40;9.57;;;;;;;8.40;90.84;99797.56;5076045;28;20035;-64
2021/05/16 05:34:26;;;;;;;14.17;8.60;;;;;;;8.61;90.28;99793.50;5093550;28;20365;-64
2021/05/16 05:36:53;;;;;;;14.10;8.80;;;;;;;8.72;89.18;99800.28;5093526;28;20436;-64
2021/05/16 05:39:18;;;;;;;;;;;;;;;8.47;89.72;99803.03;5093743;28;20044;-64
2021/05/16 05:41:45;;;;;;;;;;;;;;;8.51;90.44;99790.22;5076266;28;19922;-64
2021/05/16 05:44:11;;;;;;;12.82;9.23;;;;;;;8.59;90.54;99803.47;5074730;28;19969;-64
2021/05/16 05:46:36;;;;;;;13.20;8.77;;;;;;;8.67;90.09;99792.81;5074626;28;20036;-64
2021/05/16 05:49:02;;;;;;;15.13;8.83;;;;;;;8.85;89.68;99803.22;5074078;28;20098;-64
2021/05/16 05:51:27;;;;;;;11.75;7.70;;;;;;;9.19;89.77;99805.50;5093469;28;20042;-64
2021/05/16 05:53:52;;;;;;;9.80;7.83;;;;;;;9.51;88.02;99799.13;5093352;28;20046;-64
2021/05/16 05:56:18;;;;;;;13.10;8.03;;;;;;;9.54;86.49;99797.94;5075462;28;20050;-64
2021/05/16 05:58:43;;;;;;;9.37;6.93;;;;;;;9.62;86.44;99787.22;5092977;28;20043;-64
2021/05/16 06:01:09;;;;;;;10.23;7.40;;;;;;;9.97;84.68;99792.88;5075610;28;20090;-64
2021/05/16 06:03:34;;;;;;;8.70;7.27;;;;;;;9.59;84.88;99790.22;5093223;28;20036;-64
2021/05/16 06:05:59;;;;;;;16.93;10.63;;;;;;;9.51;86.84;99787.63;5074313;28;20518;-64
2021/05/16 06:08:25;;;;;;;12.30;8.37;;;;;;;9.79;86.13;99793.22;5075086;28;20067;-65
2021/05/16 06:10:50;;;;;;;10.73;8.30;;;;;;;9.70;85.63;99791.63;5075233;28;20039;-65
2021/05/16 06:13:15;;;;;;;11.87;7.83;;;;;;;10.05;86.13;99786.66;5093100;28;20075;-65
2021/05/16 06:15:41;;;;;;;9.60;6.70;;;;;;;10.45;85.03;99782.72;5092984;28;20103;-65
2021/05/16 06:18:06;;;;;;;8.30;6.50;;;;;;;10.77;81.33;99780.69;5074862;28;20483;-65
2021/05/16 06:20:32;;;;;;;8.32;6.22;;;;;;;11.61;79.53;99785.41;5092857;28;20028;-65
2021/05/16 06:23:00;;;;;;;7.47;6.10;;;;;;;12.01;78.27;99785.75;5092836;28;20431;-65
2021/05/16 06:25:25;;;;;;;6.13;5.40;;;;;;;12.17;75.85;99781.94;5074908;28;20108;-65
2021/05/16 06:27:50;;;;;;;10.00;6.60;;;;;;;11.62;78.47;99787.06;5092508;28;20071;-65
2021/05/16 06:30:17;;;;;;;11.40;6.97;;;;;;;11.78;78.17;99781.44;5074745;28;20040;-65
2021/05/16 06:32:42;;;;;;;7.70;6.60;;;;;;;11.01;79.74;99779.50;5074870;28;20039;-65
2021/05/16 06:35:09;;;;;;;7.63;5.60;;;;;;;10.60;81.69;99779.22;5074829;28;20043;-65
2021/05/16 06:37:35;;;;;;;11.15;6.00;;;;;;;10.27;82.89;99783.06;5074410;28;20051;-65
2021/05/16 06:40:00;;;;;;;16.20;7.40;;;;;;;10.23;84.16;99788.94;5074683;28;20457;-65
2021/05/16 06:42:26;;;;;;;10.70;6.60;;;;;;;10.49;84.30;99791.22;5092603;28;20126;-65
2021/05/16 06:44:52;;;;;;;9.80;6.45;;;;;;;10.95;83.12;99786.41;5074582;28;20446;-65
2021/05/16 06:47:18;;;;;;;6.87;6.17;;;;;;;10.96;83.55;99788.06;5092479;28;20032;-65
2021/05/16 06:49:44;;;;;;;;;;;;;;;11.47;82.16;99795.19;5092550;28;20373;-65
2021/05/16 06:52:10;;;;;;;8.38;5.53;;;;;;;12.32;77.36;99787.19;5057793;28;20560;-65
2021/05/16 06:54:35;;;;;;;7.00;5.23;;;;;;;13.12;75.56;99792.88;5092307;28;20047;-65
2021/05/16 06:57:00;;;;;;;5.80;4.63;;;;;;;13.21;73.60;99786.31;5092327;28;20458;-65
2021/05/16 06:59:26;;;;;;;5.53;4.40;;;;;;;13.10;72.49;99782.34;5057392;28;20477;-65
2021/05/16 07:01:51;;;;;;;5.67;5.03;;;;;;;12.83;73.24;99784.13;5092232;28;20464;-71
2021/05/16 07:04:17;;;;;;;5.83;4.43;;;;;;;12.82;73.39;99777.13;5091973;28;20074;-71
2021/05/16 07:06:42;;;;;;;6.13;5.20;;;;;;;13.21;73.19;99780.94;5091974;28;20035;-71
2021/05/16 07:09:07;;;;;;;7.00;4.60;;;;;;;12.71;75.16;99778.50;5091639;28;20039;-71
2021/05/16 07:11:32;;;;;;;6.10;4.77;;;;;;;12.80;74.95;99777.31;5074129;28;20366;-71
2021/05/16 07:13:58;;;;;;;6.57;4.67;;;;;;;12.99;74.76;99781.09;5074079;28;20051;-71
2021/05/16 07:16:23;;;;;;;6.90;4.87;;;;;;;12.78;74.89;99775.88;5091704;28;20357;-71
2021/05/16 07:18:49;;;;;;;5.80;4.50;;;;;;;12.71;74.15;99769.66;5091567;28;20031;-71
2021/05/16 07:21:14;;;;;;;5.70;4.77;;;;;;;12.83;75.42;99781.44;5073910;28;20363;-71
2021/05/16 07:23:39;;;;;;;8.13;5.33;;;;;;;12.56;75.75;99778.66;5091698;28;20478;-71
2021/05/16 07:26:05;;;;;;;9.20;5.70;;;;;;;12.57;75.11;99784.84;5074023;28;20042;-71
2021/05/16 07:28:30;;;;;;;6.53;5.83;;;;;;;12.81;77.25;99781.66;5073748;28;20342;-71
2021/05/16 07:30:55;;;;;;;7.20;4.73;;;;;;;12.90;76.67;99782.31;5091708;28;20065;-72
2021/05/16 07:33:21;;;;;;;7.00;5.03;;;;;;;12.35;76.91;99786.78;5073937;28;20480;-72
2021/05/16 07:35:46;;;;;;;7.43;5.53;;;;;;;12.55;77.72;99782.38;5073639;28;20130;-72
2021/05/16 07:38:12;;;;;;;6.27;5.33;;;;;;;12.77;76.24;99784.94;5073406;28;20313;-71
2021/05/16 07:40:37;;;;;;;7.57;5.33;;;;;;;12.70;74.18;99784.91;5073859;28;20063;-71
2021/05/16 07:43:04;;;;;;;9.07;5.83;;;;;;;12.51;76.25;99794.50;5091541;28;20036;-72
2021/05/16 07:45:30;;;;;;;13.05;6.38;;;;;;;12.50;75.99;99792.84;5073555;28;20040;-72
2021/05/16 07:47:56;;;;;;;7.53;6.20;;;;;;;12.57;77.11;99790.19;5091189;28;20118;-72
2021/05/16 07:50:21;;;;;;;8.23;5.18;;;;;;;12.51;78.83;99793.69;5073387;28;20028;-71
2021/05/16 07:52:46;;;;;;;8.97;7.17;;;;;;;12.35;77.12;99792.97;5056948;28;20036;-72
2021/05/16 07:55:12;;;;;;;5.63;4.87;;;;;;;12.75;77.68;99787.81;5073629;28;20043;-72
2021/05/16 07:57:37;;;;;;;6.67;5.67;;;;;;;13.10;76.09;99791.22;5091170;28;20040;-71
2021/05/16 08:00:06;;;;;;;5.83;5.23;;;;;;;13.17;73.38;99796.59;5073525;28;20028;-72
2021/05/16 08:02:41;;;;;;;9.00;6.60;;;;;;;13.12;74.35;99799.06;5074475;28;20067;-72
2021/05/16 08:05:07;;;;;;;7.07;6.35;;;;;;;13.16;72.45;99796.78;5091151;28;20081;-71
2021/05/16 08:07:33;;;;;;;8.23;7.50;;;;;;;13.52;73.25;99791.13;5090875;28;20039;-71
2021/05/16 08:09:58;;;;;;;7.43;6.73;;;;;;;13.77;71.92;99796.72;5056790;28;20368;-71
2021/05/16 08:12:23;;;;;;;7.33;6.67;;;;;;;13.58;71.29;99781.41;5091086;28;20032;-72
2021/05/16 08:14:49;;;;;;;7.87;7.03;;;;;;;12.94;72.28;99788.09;5091223;28;20020;-72
2021/05/16 08:17:14;;;;;;;9.03;7.37;;;;;;;13.27;72.89;99786.38;5073301;28;20533;-72
2021/05/16 08:19:40;;;;;;;7.32;6.38;;;;;;;13.24;70.99;99788.59;5073158;28;20469;-71
2021/05/16 08:22:09;;;;;;;6.85;6.15;;;;;;;13.33;72.09;99792.75;5056746;28;20028;-71
2021/05/16 08:24:35;;;;;;;7.15;6.45;;;;;;;13.54;70.99;99789.06;5073659;28;20576;-64
2021/05/16 08:27:01;;;;;;;6.63;6.13;;;;;;;13.88;69.02;99782.69;5073301;28;20052;-64
2021/05/16 08:29:26;;;;;;;9.93;6.43;;;;;;;13.64;69.28;99786.78;5092788;28;20035;-64
2021/05/16 08:31:51;;;;;;;6.43;5.80;;;;;;;13.09;71.67;99789.59;5094987;28;20046;-64
2021/05/16 08:34:17;;;;;;;7.50;5.10;;;;;;;13.90;69.32;99793.19;5077165;28;20089;-64
2021/05/16 08:36:42;;;;;;;5.63;5.03;;;;;;;13.57;68.71;99795.88;5094948;28;20078;-64
2021/05/16 08:39:08;;;;;;;5.40;4.57;;;;;;;13.36;69.01;99788.84;5076982;28;20036;-64
2021/05/16 08:41:35;;;;;;;5.40;4.88;;;;;;;14.46;66.99;99794.53;5094851;28;20369;-64
2021/05/16 08:44:01;;;;;;;6.07;5.50;;;;;;;13.80;68.25;99796.28;5094725;28;20071;-64
2021/05/16 08:46:27;;;;;;;;;;;;;;;14.21;67.54;99789.88;5095120;28;20036;-65
2021/05/16 08:48:52;;;;;;;;;;;;;;;14.21;67.18;99803.28;5094898;28;19980;-65
2021/05/16 08:51:18;;;;;;;6.43;5.10;;;;;;;13.44;68.22;99791.34;5094620;28;19912;-65
2021/05/16 08:53:43;;;;;;;5.63;5.07;;;;;;;13.13;69.14;99794.53;5094614;28;20111;-65
2021/05/16 08:56:12;;;;;;;11.80;6.37;;;;;;;13.31;69.38;99786.75;5060070;28;20492;-65
2021/05/16 08:58:37;;;;;;;5.63;5.03;;;;;;;13.69;68.22;99789.69;5094215;28;20062;-64
2021/05/16 09:01:20;;;;;;;5.55;5.05;;;;;;;13.76;66.62;99791.53;5094318;28;20557;-65
2021/05/16 09:03:45;;;;;;;4.95;4.55;;;;;;;14.18;68.73;99784.91;5094381;28;20036;-65
2021/05/16 09:06:11;;;;;;;7.20;4.20;;;;;;;13.41;69.93;99784.50;5094380;28;20184;-65
2021/05/16 09:08:36;;;;;;;4.10;3.70;;;;;;;13.05;69.22;99785.66;5094111;28;20055;-64
2021/05/16 09:11:02;;;;;;;5.30;4.17;;;;;;;13.02;68.79;99799.47;5094300;28;20063;-64
2021/05/16 09:13:28;;;;;;;;;;;;;;;13.51;66.44;99800.22;5076864;28;20028;-64
2021/05/16 09:16:13;;;;;;;1.70;1.33;;;;;;;13.39;64.29;99794.63;5076221;28;19998;-65
2021/05/16 09:18:47;;;;;;;1.67;1.58;;;;;;;13.65;66.40;99792.97;5093904;28;20036;-64
2021/05/16 09:21:29;;;;;;;1.50;0.80;;;;;;;14.04;61.80;99797.50;5094099;28;20043;-64
2021/05/16 09:24:07;;;;;;;1.60;1.30;;;;;;;13.84;62.17;99792.16;5076140;28;20050;-64
2021/05/16 09:26:53;;;;;;;1.77;1.48;;;;;;;13.53;64.32;99795.44;5076072;28;20123;-65
2021/05/16 09:29:42;;;;;;;0.85;0.80;;;;;;;13.24;63.71;99796.63;5093581;28;20048;-64
2021/05/16 09:32:08;;;;;;;3.00;0.60;;;;;;;13.61;61.02;99787.22;5076168;28;20042;-64
2021/05/16 09:34:34;;;;;;;1.20;0.80;;;;;;;14.42;62.13;99788.78;5059262;28;20346;-65
2021/05/16 09:37:00;;;;;;;2.45;0.90;;;;;;;14.37;61.36;99785.88;5093798;28;20086;-65
2021/05/16 09:39:31;;;;;;;0.80;0.80;;;;;;;14.38;60.25;99792.09;5093404;28;20059;-64
2021/05/16 09:42:05;;;;;;;1.35;0.50;;;;;;;14.76;57.95;99795.72;5075852;28;20477;-65
2021/05/16 09:44:43;;;;;;;0.60;0.60;;;;;;;14.07;59.54;99789.06;5075702;28;20057;-64
2021/05/16 09:47:10;;;;;;;0.73;0.60;;;;;;;13.80;60.64;99784.75;5093597;28;20055;-65
2021/05/16 09:49:36;;;;;;;0.98;0.77;;;;;;;13.85;60.80;99793.81;5075554;28;20076;-64
2021/05/16 09:52:28;;;;;;;3.03;0.80;;;;;;;15.06;61.33;99779.03;5093536;28;20056;-65
2021/05/16 09:55:08;;;;;;;1.17;0.90;;;;;;;16.93;52.85;99772.78;5075778;28;20063;-64
2021/05/16 09:57:36;;;;;;;2.38;1.05;;;;;;;17.83;50.73;99779.97;5075342;28;20044;-65
2021/05/16 10:00:04;;;;;;;1.63;1.20;;;;;;;16.91;52.00;99774.88;5093332;28;20450;-65
2021/05/16 10:02:29;;;;;;;1.58;1.00;;;;;;;16.66;54.03;99770.38;5093261;28;20067;-65
2021/05/16 10:04:58;;;;;;;5.43;1.50;;;;;;;16.07;57.82;99774.56;5075362;28;20059;-65
2021/05/16 10:07:23;;;;;;;2.70;1.30;;;;;;;15.48;58.12;99770.50;5093063;28;20148;-65
2021/05/16 10:09:51;;;;;;;1.60;1.10;;;;;;;16.88;54.82;99769.97;5075092;28;20480;-65
2021/05/16 10:12:18;;;;;;;1.20;1.10;;;;;;;15.88;54.11;99778.28;5075135;28;20036;-65
2021/05/16 10:14:47;;;;;;;2.65;1.08;;;;;;;16.20;53.82;99765.53;5075261;28;20028;-65
2021/05/16 10:17:14;;;;;;;1.73;0.93;;;;;;;15.68;56.29;99765.75;5092988;28;20036;-72
2021/05/16 10:19:42;;;;;;;2.35;1.08;;;;;;;15.05;57.26;99769.31;5074870;28;20157;-65
2021/05/16 10:22:07;;;;;;;1.25;1.10;;;;;;;15.08;57.42;99770.75;5092999;28;20036;-65
2021/05/16 10:24:41;;;;;;;1.57;1.10;;;;;;;14.49;60.56;99778.00;5075181;28;20044;-65
2021/05/16 10:27:14;;;;;;;2.70;1.30;;;;;;;14.75;60.22;99772.56;5093163;28;20032;-65
2021/05/16 10:29:51;;;;;;;3.28;2.35;;;;;;;15.15;62.74;99771.56;5058063;28;20036;-65
2021/05/16 10:32:32;;;;;;;2.95;1.80;;;;;;;15.69;61.40;99772.00;5092745;28;20040;-65
2021/05/16 10:34:59;;;;;;;2.88;1.70;;;;;;;15.27;60.09;99766.31;5058251;28;20389;-72
2021/05/16 10:37:46;;;;;;;1.70;1.60;;;;;;;14.85;60.93;99760.56;5092511;28;20400;-72
2021/05/16 10:40:11;;;;;;;2.65;1.38;;;;;;;14.67;61.92;99755.88;5058175;28;20051;-73
2021/05/16 10:42:41;;;;;;;1.60;1.50;;;;;;;14.24;63.09;99751.03;5074880;28;20453;-72
2021/05/16 10:45:16;;;;;;;1.50;1.40;;;;;;;14.49;61.76;99752.00;5057843;28;20051;-65
2021/05/16 10:47:42;;;;;;;2.53;1.45;;;;;;;14.68;61.89;99752.97;5057847;28;20031;-65
2021/05/16 10:50:35;;;;;;;1.57;1.47;;;;;;;15.15;61.42;99753.53;5092479;28;20032;-65
2021/05/16 10:53:08;;;;;;;2.08;1.80;;;;;;;15.20;61.28;99760.97;5088752;28;20093;-65
2021/05/16 10:56:05;;;;;;;2.80;1.98;;;;;;;14.28;62.61;99755.78;5074721;28;20044;-65
2021/05/16 10:58:33;;;;;;;3.17;2.17;;;;;;;14.30;63.30;99759.03;5092111;28;20028;-65
2021/05/16 11:01:16;;;;;;;2.67;2.08;;;;;;;13.88;66.10;99755.84;5092234;28;20368;-65
2021/05/16 11:03:42;;;;;;;2.97;2.05;;;;;;;14.06;65.52;99747.13;5092100;28;20334;-65
2021/05/16 11:06:08;;;;;;;3.97;3.58;;;;;;;13.37;67.53;99755.63;5074172;28;20028;-65
2021/05/16 11:08:33;;;;;;;4.35;2.70;;;;;;;13.02;68.77;99755.78;5073808;28;20131;-65
2021/05/16 11:11:00;;;;;;;2.83;2.63;;;;;;;13.12;70.13;99760.72;5074135;28;20085;-65
2021/05/16 11:13:28;;;;;;;7.07;4.10;;;;;;;13.08;72.47;99754.94;5074206;28;20039;-65
2021/05/16 11:16:03;;;;;;;3.88;3.47;;;;;;;13.01;71.42;99764.81;5074023;28;20093;-66
2021/05/16 11:18:28;;;;;;;3.55;3.03;;;;;;;13.63;71.10;99758.34;5073765;28;20061;-66
2021/05/16 11:21:05;;;;;;;4.43;3.60;;;;;;;14.34;68.78;99752.22;5057270;28;20052;-65
2021/05/16 11:23:33;;;;;;;3.45;2.97;;;;;;;16.03;66.58;99752.63;5073889;28;20036;-66
2021/05/16 11:26:01;;;;;;;4.43;3.83;;;;;;;15.07;65.89;99748.41;5073885;28;20067;-66
2021/05/16 11:28:28;;;;;;;4.28;3.53;;;;;;;14.85;68.18;99744.44;5091457;28;20036;-66
2021/05/16 11:30:56;;;;;;;3.80;3.50;;;;;;;14.94;67.06;99743.97;5073849;28;20028;-66
2021/05/16 11:33:28;;;;;;;3.42;3.08;;;;;;;15.07;65.68;99742.22;5073741;28;20040;-66